createdAt,value
2023-04-24T00:01:08.791Z,21.67
2023-04-24T00:03:37.233Z,21.67
2023-04-24T00:06:07.779Z,21.56
2023-04-24T00:08:36.077Z,21.65
2023-04-24T00:11:04.146Z,21.63
2023-04-24T00:13:32.459Z,21.65
2023-04-24T00:16:00.374Z,21.64
2023-04-24T00:18:28.433Z,21.64
2023-04-24T00:20:56.566Z,21.64
2023-04-24T00:23:25.920Z,21.64
2023-04-24T00:25:53.892Z,21.62
2023-04-24T00:28:22.021Z,21.62
2023-04-24T00:30:50.074Z,21.62
2023-04-24T00:33:18.167Z,21.62
2023-04-24T00:35:46.144Z,21.60
2023-04-24T00:38:14.241Z,21.59
2023-04-24T00:40:45.201Z,21.59
2023-04-24T00:43:13.318Z,21.51
2023-04-24T00:45:41.872Z,21.58
2023-04-24T00:48:10.139Z,21.58
2023-04-24T00:50:38.595Z,21.58
2023-04-24T00:53:06.767Z,21.58
2023-04-24T00:55:34.836Z,21.57
2023-04-24T00:58:04.194Z,21.56
2023-04-24T01:00:32.697Z,21.56
2023-04-24T01:03:03.882Z,21.56
2023-04-24T01:05:32.348Z,21.57
2023-04-24T01:08:01.394Z,21.54
2023-04-24T01:10:31.566Z,21.54
2023-04-24T01:13:00.231Z,21.53
2023-04-24T01:15:29.536Z,21.52
2023-04-24T01:17:58.202Z,21.51
2023-04-24T01:20:27.913Z,21.50
2023-04-24T01:22:58.467Z,21.50
2023-04-24T01:25:29.978Z,21.48
2023-04-24T01:27:59.212Z,21.49
2023-04-24T01:30:27.318Z,21.46
2023-04-24T01:32:55.766Z,21.29
2023-04-24T01:35:23.979Z,21.44
2023-04-24T01:37:52.110Z,21.42
2023-04-24T01:40:21.606Z,21.42
2023-04-24T01:42:49.846Z,21.41
2023-04-24T01:45:17.988Z,21.39
2023-04-24T01:47:47.094Z,21.38
2023-04-24T01:50:15.691Z,21.28
2023-04-24T01:52:43.850Z,21.36
2023-04-24T01:55:12.638Z,21.28
2023-04-24T01:57:42.299Z,21.34
2023-04-24T02:00:12.259Z,21.34
2023-04-24T02:02:46.528Z,21.32
2023-04-24T02:05:16.314Z,21.31
2023-04-24T02:07:44.318Z,21.31
2023-04-24T02:10:13.160Z,21.29
2023-04-24T02:12:45.720Z,21.29
2023-04-24T02:15:14.092Z,21.29
2023-04-24T02:17:42.287Z,21.10
2023-04-24T02:20:10.392Z,21.27
2023-04-24T02:22:40.116Z,21.25
2023-04-24T02:25:09.078Z,21.25
2023-04-24T02:27:37.100Z,21.24
2023-04-24T02:30:10.440Z,21.25
2023-04-24T02:32:40.077Z,21.24
2023-04-24T02:35:09.005Z,21.23
2023-04-24T02:37:37.013Z,21.22
2023-04-24T02:40:06.886Z,21.22
2023-04-24T02:42:34.993Z,21.21
2023-04-24T02:45:03.192Z,21.20
2023-04-24T02:47:32.832Z,21.22
2023-04-24T02:50:01.821Z,21.19
2023-04-24T02:52:29.900Z,21.20
2023-04-24T02:54:57.937Z,20.68
2023-04-24T02:57:26.088Z,21.16
2023-04-24T02:59:54.187Z,21.18
2023-04-24T03:02:22.796Z,21.18
2023-04-24T03:04:52.324Z,21.18
2023-04-24T03:07:22.240Z,21.17
2023-04-24T03:09:50.262Z,21.17
2023-04-24T03:12:19.015Z,21.15
2023-04-24T03:14:46.966Z,21.15
2023-04-24T03:17:14.989Z,21.14
2023-04-24T03:19:43.179Z,21.12
2023-04-24T03:22:14.651Z,21.12
2023-04-24T03:24:43.287Z,21.11
2023-04-24T03:27:11.265Z,21.11
2023-04-24T03:29:57.745Z,21.09
2023-04-24T03:32:37.989Z,21.07
2023-04-24T03:35:07.444Z,21.07
2023-04-24T03:37:36.875Z,21.07
2023-04-24T03:40:31.082Z,21.05
2023-04-24T03:43:00.352Z,20.88
2023-04-24T03:45:28.446Z,21.02
2023-04-24T03:47:56.556Z,21.01
2023-04-24T03:50:24.651Z,20.87
2023-04-24T03:52:54.036Z,21.01
2023-04-24T03:55:34.196Z,21.00
2023-04-24T03:58:02.492Z,20.98
2023-04-24T04:00:34.117Z,20.98
2023-04-24T04:03:22.350Z,20.97
2023-04-24T04:05:51.356Z,20.94
2023-04-24T04:08:20.628Z,20.96
2023-04-24T04:10:49.922Z,20.80
2023-04-24T04:13:17.860Z,20.94
2023-04-24T04:15:46.518Z,20.94
2023-04-24T04:18:14.882Z,20.95
2023-04-24T04:20:42.944Z,20.95
2023-04-24T04:23:13.111Z,20.96
2023-04-24T04:26:06.122Z,20.96
2023-04-24T04:28:59.956Z,20.76
2023-04-24T04:31:28.143Z,20.95
2023-04-24T04:33:58.008Z,20.94
2023-04-24T04:36:26.991Z,20.95
2023-04-24T04:39:03.779Z,20.94
2023-04-24T04:41:50.041Z,20.94
2023-04-24T04:44:20.056Z,20.94
2023-04-24T04:46:48.755Z,20.94
2023-04-24T04:49:25.693Z,20.93
2023-04-24T04:51:54.085Z,20.93
2023-04-24T04:54:23.456Z,20.94
2023-04-24T04:56:53.717Z,20.96
2023-04-24T04:59:22.028Z,20.94
2023-04-24T05:01:53.478Z,20.95
2023-04-24T05:04:22.393Z,20.94
2023-04-24T05:06:53.242Z,20.95
2023-04-24T05:09:23.259Z,20.95
2023-04-24T05:11:58.760Z,20.94
2023-04-24T05:14:28.734Z,20.90
2023-04-24T05:16:57.547Z,20.93
2023-04-24T05:19:27.529Z,20.92
2023-04-24T05:21:55.867Z,20.91
2023-04-24T05:24:24.348Z,20.90
2023-04-24T05:27:28.923Z,20.88
2023-04-24T05:29:57.621Z,20.82
2023-04-24T05:32:25.669Z,20.84
2023-04-24T05:34:53.724Z,20.85
2023-04-24T05:37:21.777Z,20.85
2023-04-24T05:39:49.917Z,20.85
2023-04-24T05:42:17.909Z,20.85
2023-04-24T05:44:47.329Z,20.85
2023-04-24T05:47:15.450Z,20.84
2023-04-24T05:49:44.038Z,20.83
2023-04-24T05:52:12.184Z,20.84
2023-04-24T05:54:41.875Z,20.83
2023-04-24T05:57:11.793Z,20.80
2023-04-24T05:59:52.352Z,20.82
2023-04-24T06:02:22.385Z,20.80
2023-04-24T06:04:50.564Z,20.81
2023-04-24T06:07:19.491Z,20.83
2023-04-24T06:09:48.156Z,20.83
2023-04-24T06:12:16.654Z,20.82
2023-04-24T06:14:56.470Z,20.82
2023-04-24T06:17:38.391Z,20.81
2023-04-24T06:20:08.979Z,20.81
2023-04-24T06:22:37.400Z,20.79
2023-04-24T06:25:06.728Z,20.79
2023-04-24T06:27:34.961Z,20.79
2023-04-24T06:30:05.118Z,20.79
2023-04-24T06:32:34.996Z,20.76
2023-04-24T06:35:03.058Z,20.75
2023-04-24T06:37:31.467Z,20.75
2023-04-24T06:39:59.443Z,20.73
2023-04-24T06:42:27.358Z,20.73
2023-04-24T06:44:57.116Z,20.74
2023-04-24T06:47:26.585Z,20.74
2023-04-24T06:49:56.127Z,20.73
2023-04-24T06:52:24.107Z,20.72
2023-04-24T06:54:52.237Z,20.74
2023-04-24T06:57:20.998Z,20.76
2023-04-24T06:59:49.207Z,20.77
2023-04-24T07:02:17.261Z,20.86
2023-04-24T07:04:48.543Z,20.91
2023-04-24T07:07:17.607Z,20.94
2023-04-24T07:09:46.496Z,21.00
2023-04-24T07:12:14.601Z,20.94
2023-04-24T07:14:42.585Z,21.03
2023-04-24T07:17:10.637Z,21.05
2023-04-24T07:19:38.672Z,21.13
2023-04-24T07:22:08.175Z,21.16
2023-04-24T07:24:36.375Z,21.18
2023-04-24T07:27:04.410Z,21.20
2023-04-24T07:29:32.430Z,21.18
2023-04-24T07:32:02.094Z,21.25
2023-04-24T07:34:31.967Z,21.27
2023-04-24T07:36:59.952Z,21.29
2023-04-24T07:39:30.259Z,21.30
2023-04-24T07:41:59.600Z,21.25
2023-04-24T07:44:27.451Z,21.24
2023-04-24T07:46:55.898Z,21.35
2023-04-24T07:49:23.979Z,21.34
2023-04-24T07:51:52.084Z,21.35
2023-04-24T07:54:20.060Z,21.35
2023-04-24T07:56:50.646Z,21.34
2023-04-24T07:59:18.741Z,21.39
2023-04-24T08:01:46.854Z,21.39
2023-04-24T08:04:15.137Z,21.39
2023-04-24T08:06:43.285Z,21.45
2023-04-24T08:09:11.442Z,21.42
2023-04-24T08:11:39.476Z,21.32
2023-04-24T08:14:08.946Z,21.49
2023-04-24T08:16:37.602Z,21.49
2023-04-24T08:19:05.920Z,21.49
2023-04-24T08:21:34.005Z,21.50
2023-04-24T08:24:06.078Z,21.52
2023-04-24T08:26:34.211Z,21.54
2023-04-24T08:29:02.293Z,21.50
2023-04-24T08:31:31.745Z,21.54
2023-04-24T08:34:00.940Z,21.52
2023-04-24T08:36:43.513Z,21.52
2023-04-24T08:39:14.515Z,21.46
2023-04-24T08:41:44.058Z,21.54
2023-04-24T08:44:13.741Z,21.54
2023-04-24T08:46:44.769Z,21.54
2023-04-24T08:49:14.250Z,21.47
2023-04-24T08:51:42.280Z,21.53
2023-04-24T08:54:10.601Z,21.52
2023-04-24T08:56:40.408Z,21.51
2023-04-24T08:59:08.708Z,21.45
2023-04-24T09:01:40.895Z,21.50
2023-04-24T09:04:13.327Z,21.51
2023-04-24T09:06:41.996Z,21.35
2023-04-24T09:09:12.788Z,21.50
2023-04-24T09:11:41.002Z,21.50
2023-04-24T09:14:10.382Z,21.46
2023-04-24T09:16:38.657Z,21.51
2023-04-24T09:19:06.702Z,21.50
2023-04-24T09:21:37.133Z,21.52
2023-04-24T09:24:08.208Z,21.52
2023-04-24T09:26:38.308Z,21.52
2023-04-24T09:29:06.924Z,21.53
2023-04-24T09:31:35.139Z,21.54
2023-04-24T09:34:08.326Z,21.56
2023-04-24T09:36:39.293Z,21.57
2023-04-24T09:39:09.218Z,21.54
2023-04-24T09:41:45.318Z,21.55
2023-04-24T09:44:15.318Z,21.40
2023-04-24T09:46:44.270Z,21.52
2023-04-24T09:49:16.439Z,21.51
2023-04-24T09:51:45.993Z,21.50
2023-04-24T09:54:18.280Z,21.50
2023-04-24T09:56:47.561Z,21.48
2023-04-24T09:59:16.021Z,21.47
2023-04-24T10:01:45.686Z,21.40
2023-04-24T10:04:21.597Z,21.46
2023-04-24T10:06:52.708Z,21.45
2023-04-24T10:09:21.800Z,21.44
2023-04-24T10:11:51.231Z,21.44
2023-04-24T10:14:21.591Z,21.44
2023-04-24T10:16:50.566Z,21.42
2023-04-24T10:19:21.089Z,21.43
2023-04-24T10:21:50.845Z,21.37
2023-04-24T10:24:21.436Z,21.44
2023-04-24T10:26:50.078Z,21.40
2023-04-24T10:29:22.413Z,21.44
2023-04-24T10:31:50.662Z,21.43
2023-04-24T10:34:22.566Z,21.44
2023-04-24T10:36:56.537Z,21.44
2023-04-24T10:39:27.897Z,21.41
2023-04-24T10:41:58.516Z,21.44
2023-04-24T10:44:27.746Z,21.44
2023-04-24T10:46:57.787Z,21.45
2023-04-24T10:49:31.888Z,21.44
2023-04-24T10:52:06.700Z,21.44
2023-04-24T10:54:37.989Z,21.45
2023-04-24T10:57:31.015Z,21.44
2023-04-24T11:00:32.330Z,21.43
2023-04-24T11:03:00.682Z,21.43
2023-04-24T11:05:54.541Z,21.45
2023-04-24T11:08:28.864Z,21.45
2023-04-24T11:11:02.790Z,21.44
2023-04-24T11:14:07.416Z,21.44
2023-04-24T11:16:39.580Z,21.43
2023-04-24T11:19:09.227Z,21.46
2023-04-24T11:21:45.156Z,21.47
2023-04-24T11:24:28.947Z,21.45
2023-04-24T11:26:58.972Z,21.44
2023-04-24T11:29:41.714Z,21.45
2023-04-24T11:32:27.743Z,21.45
2023-04-24T11:34:57.865Z,21.44
2023-04-24T11:37:28.184Z,21.45
2023-04-24T11:39:58.884Z,21.46
2023-04-24T11:42:27.251Z,21.42
2023-04-24T11:44:56.513Z,21.46
2023-04-24T11:47:31.088Z,21.47
2023-04-24T11:50:00.527Z,21.45
2023-04-24T11:52:29.508Z,21.45
2023-04-24T11:54:59.550Z,21.46
2023-04-24T11:57:29.977Z,21.36
2023-04-24T11:59:57.955Z,21.45
2023-04-24T12:02:26.889Z,21.44
2023-04-24T12:04:56.378Z,21.44
2023-04-24T12:07:25.922Z,21.44
2023-04-24T12:10:00.567Z,21.44
2023-04-24T12:12:30.096Z,21.43
2023-04-24T12:14:59.964Z,21.43
2023-04-24T12:17:29.821Z,21.42
2023-04-24T12:20:02.428Z,21.44
2023-04-24T12:22:31.281Z,21.42
2023-04-24T12:25:06.439Z,21.42
2023-04-24T12:27:35.171Z,21.21
2023-04-24T12:30:06.337Z,21.41
2023-04-24T12:32:34.713Z,21.32
2023-04-24T12:35:07.055Z,21.40
2023-04-24T12:37:37.476Z,21.41
2023-04-24T12:40:09.712Z,21.41
2023-04-24T12:42:43.672Z,21.43
2023-04-24T12:45:13.153Z,21.47
2023-04-24T12:47:42.216Z,21.50
2023-04-24T12:50:11.735Z,21.53
2023-04-24T12:52:40.359Z,21.32
2023-04-24T12:55:10.535Z,21.58
2023-04-24T12:57:40.150Z,21.57
2023-04-24T13:00:10.436Z,21.62
2023-04-24T13:02:38.581Z,21.66
2023-04-24T13:05:07.129Z,21.69
2023-04-24T13:07:35.267Z,21.74
2023-04-24T13:10:03.307Z,21.78
2023-04-24T13:12:32.683Z,21.82
2023-04-24T13:15:01.118Z,21.86
2023-04-24T13:17:29.205Z,21.89
2023-04-24T13:19:57.823Z,21.90
2023-04-24T13:22:26.004Z,21.94
2023-04-24T13:24:54.110Z,21.95
2023-04-24T13:27:22.102Z,21.96
2023-04-24T13:29:52.189Z,22.00
2023-04-24T13:32:20.579Z,22.01
2023-04-24T13:34:48.960Z,22.03
2023-04-24T13:37:17.043Z,22.04
2023-04-24T13:39:45.130Z,22.05
2023-04-24T13:42:13.781Z,22.05
2023-04-24T13:44:42.603Z,22.12
2023-04-24T13:47:12.009Z,22.13
2023-04-24T13:49:40.052Z,22.16
2023-04-24T13:52:08.345Z,22.16
2023-04-24T13:54:36.337Z,22.17
2023-04-24T13:57:05.342Z,22.17
2023-04-24T13:59:33.521Z,22.16
2023-04-24T14:02:01.670Z,22.14
2023-04-24T14:04:31.181Z,22.15
2023-04-24T14:06:59.435Z,22.13
2023-04-24T14:09:27.531Z,22.08
2023-04-24T14:11:55.606Z,22.11
2023-04-24T14:14:23.677Z,22.07
2023-04-24T14:16:51.937Z,22.02
2023-04-24T14:19:20.057Z,21.98
2023-04-24T14:21:50.023Z,21.96
2023-04-24T14:24:17.994Z,21.93
2023-04-24T14:26:46.037Z,21.94
2023-04-24T14:29:15.401Z,21.94
2023-04-24T14:31:43.922Z,21.93
2023-04-24T14:34:11.870Z,21.94
2023-04-24T14:36:39.964Z,21.93
2023-04-24T14:39:09.713Z,21.95
2023-04-24T14:41:38.524Z,21.95
2023-04-24T14:44:06.699Z,21.95
2023-04-24T14:46:35.105Z,21.84
2023-04-24T14:49:03.230Z,21.95
2023-04-24T14:51:31.450Z,21.86
2023-04-24T14:54:00.249Z,21.88
2023-04-24T14:56:29.734Z,21.97
2023-04-24T14:58:57.762Z,21.97
2023-04-24T15:01:26.423Z,21.96
2023-04-24T15:03:55.000Z,21.94
2023-04-24T15:06:23.269Z,21.95
2023-04-24T15:08:54.189Z,21.98
2023-04-24T15:11:22.348Z,21.97
2023-04-24T15:13:52.080Z,21.98
2023-04-24T15:16:20.272Z,21.97
2023-04-24T15:18:48.378Z,21.97
2023-04-24T15:21:16.403Z,21.96
2023-04-24T15:23:44.602Z,21.96
2023-04-24T15:26:12.770Z,21.95
2023-04-24T15:28:40.818Z,21.92
2023-04-24T15:31:10.218Z,21.95
2023-04-24T15:33:38.296Z,21.94
2023-04-24T15:36:06.911Z,21.93
2023-04-24T15:38:35.095Z,21.94
2023-04-24T15:41:03.194Z,21.92
2023-04-24T15:43:35.083Z,21.72
2023-04-24T15:46:03.484Z,21.94
2023-04-24T15:48:33.448Z,21.95
2023-04-24T15:51:04.777Z,21.96
2023-04-24T15:53:32.991Z,21.95
2023-04-24T15:56:01.164Z,21.95
2023-04-24T15:58:29.217Z,21.95
2023-04-24T16:00:57.249Z,21.94
2023-04-24T16:03:25.600Z,21.94
2023-04-24T16:05:55.462Z,21.92
2023-04-24T16:08:23.657Z,21.91
2023-04-24T16:10:52.684Z,21.90
2023-04-24T16:13:20.918Z,21.88
2023-04-24T16:15:49.854Z,21.83
2023-04-24T16:18:18.506Z,21.82
2023-04-24T16:20:46.798Z,21.78
2023-04-24T16:23:16.294Z,21.78
2023-04-24T16:25:44.262Z,21.74
2023-04-24T16:28:12.842Z,21.72
2023-04-24T16:30:40.924Z,21.70
2023-04-24T16:33:10.912Z,21.65
2023-04-24T16:35:39.009Z,21.66
2023-04-24T16:38:07.022Z,21.63
2023-04-24T16:40:36.545Z,21.62
2023-04-24T16:43:04.693Z,21.59
2023-04-24T16:45:32.643Z,21.54
2023-04-24T16:48:00.852Z,21.49
2023-04-24T16:50:28.865Z,21.48
2023-04-24T16:52:56.922Z,21.40
2023-04-24T16:55:25.430Z,21.42
2023-04-24T16:57:54.815Z,21.39
2023-04-24T17:00:22.863Z,21.35
2023-04-24T17:02:51.197Z,21.27
2023-04-24T17:05:21.264Z,21.27
2023-04-24T17:07:49.331Z,21.26
2023-04-24T17:10:17.634Z,21.25
2023-04-24T17:12:45.613Z,21.22
2023-04-24T17:15:15.049Z,21.19
2023-04-24T17:17:44.319Z,21.16
2023-04-24T17:20:21.965Z,21.14
2023-04-24T17:22:51.229Z,21.10
2023-04-24T17:25:19.352Z,20.97
2023-04-24T17:27:47.538Z,21.05
2023-04-24T17:30:17.693Z,20.99
2023-04-24T17:32:46.356Z,21.02
2023-04-24T17:35:14.492Z,21.00
2023-04-24T17:37:42.539Z,20.98
2023-04-24T17:40:11.521Z,20.96
2023-04-24T17:42:41.529Z,20.94
2023-04-24T17:45:11.321Z,20.92
2023-04-24T17:47:41.077Z,20.91
2023-04-24T17:50:09.803Z,20.87
2023-04-24T17:52:37.764Z,20.87
2023-04-24T17:55:06.617Z,20.84
2023-04-24T17:57:34.691Z,20.83
2023-04-24T18:00:02.967Z,20.82
2023-04-24T18:02:33.830Z,20.79
2023-04-24T18:05:03.652Z,20.77
2023-04-24T18:07:31.596Z,20.75
2023-04-24T18:09:59.606Z,20.74
2023-04-24T18:12:28.063Z,20.73
2023-04-24T18:15:10.425Z,20.71
2023-04-24T18:17:41.759Z,20.69
2023-04-24T18:20:12.412Z,20.67
2023-04-24T18:22:40.759Z,20.65
2023-04-24T18:25:09.855Z,20.65
2023-04-24T18:27:38.534Z,20.63
2023-04-24T18:30:07.828Z,20.61
2023-04-24T18:32:36.293Z,20.60
2023-04-24T18:35:04.979Z,20.48
2023-04-24T18:37:34.604Z,20.58
2023-04-24T18:40:03.581Z,20.57
2023-04-24T18:42:31.942Z,20.52
2023-04-24T18:45:01.845Z,20.54
2023-04-24T18:47:30.119Z,20.50
2023-04-24T18:49:58.194Z,20.48
2023-04-24T18:52:26.593Z,20.50
2023-04-24T18:54:56.044Z,20.50
2023-04-24T18:57:25.327Z,20.45
2023-04-24T18:59:53.896Z,20.44
2023-04-24T19:02:22.218Z,20.46
2023-04-24T19:04:50.343Z,20.47
2023-04-24T19:07:19.371Z,20.46
2023-04-24T19:09:47.380Z,20.46
2023-04-24T19:12:16.952Z,20.45
2023-04-24T19:14:45.786Z,20.45
2023-04-24T19:17:14.108Z,20.44
2023-04-24T19:19:42.117Z,20.44
2023-04-24T19:22:10.294Z,20.42
2023-04-24T19:24:38.819Z,20.43
2023-04-24T19:27:06.835Z,20.41
2023-04-24T19:29:36.337Z,20.42
2023-04-24T19:32:04.759Z,20.39
2023-04-24T19:34:34.535Z,20.39
2023-04-24T19:37:02.745Z,20.36
2023-04-24T19:39:32.423Z,20.38
2023-04-24T19:42:04.107Z,20.29
2023-04-24T19:44:33.239Z,20.37
2023-04-24T19:47:02.761Z,20.37
2023-04-24T19:49:37.076Z,20.36
2023-04-24T19:52:07.850Z,20.35
2023-04-24T19:54:35.802Z,20.34
2023-04-24T19:57:04.115Z,20.33
2023-04-24T19:59:34.000Z,20.30
2023-04-24T20:02:03.958Z,20.25
2023-04-24T20:04:32.118Z,20.31
2023-04-24T20:07:00.836Z,20.33
2023-04-24T20:09:30.431Z,20.29
2023-04-24T20:12:00.159Z,20.33
2023-04-24T20:14:28.250Z,20.34
2023-04-24T20:16:56.399Z,20.34
2023-04-24T20:19:25.905Z,20.36
2023-04-24T20:21:54.598Z,20.37
2023-04-24T20:24:22.704Z,20.38
2023-04-24T20:26:50.743Z,20.38
2023-04-24T20:29:18.869Z,20.39
2023-04-24T20:31:47.470Z,20.40
2023-04-24T20:34:15.597Z,20.40
2023-04-24T20:36:49.361Z,20.41
2023-04-24T20:39:19.244Z,20.39
2023-04-24T20:41:47.837Z,20.38
2023-04-24T20:44:16.076Z,20.33
2023-04-24T20:46:44.034Z,20.38
2023-04-24T20:49:12.194Z,20.37
2023-04-24T20:51:41.499Z,20.37
2023-04-24T20:54:10.987Z,20.37
2023-04-24T20:56:39.137Z,20.37
2023-04-24T20:59:07.295Z,20.36
2023-04-24T21:01:35.285Z,20.36
2023-04-24T21:04:03.461Z,20.33
2023-04-24T21:06:32.128Z,20.37
2023-04-24T21:09:00.550Z,20.37
2023-04-24T21:11:30.060Z,20.38
2023-04-24T21:13:58.216Z,20.37
2023-04-24T21:16:26.265Z,20.39
2023-04-24T21:18:54.314Z,20.38
2023-04-24T21:21:22.439Z,20.38
2023-04-24T21:23:50.591Z,20.37
2023-04-24T21:26:18.990Z,20.37
2023-04-24T21:28:48.556Z,20.38
2023-04-24T21:31:16.522Z,20.33
2023-04-24T21:33:44.624Z,20.37
2023-04-24T21:36:12.721Z,20.37
2023-04-24T21:38:41.213Z,20.37
2023-04-24T21:41:09.231Z,20.36
2023-04-24T21:43:44.717Z,20.33
2023-04-24T21:46:20.014Z,20.36
2023-04-24T21:48:48.036Z,20.37
2023-04-24T21:51:16.682Z,20.36
2023-04-24T21:53:44.717Z,20.33
2023-04-24T21:56:13.154Z,20.37
2023-04-24T21:58:41.288Z,20.30
2023-04-24T22:01:09.874Z,20.36
2023-04-24T22:03:39.472Z,20.38
2023-04-24T22:06:07.816Z,20.37
2023-04-24T22:08:36.424Z,20.37
2023-04-24T22:11:07.220Z,20.36
2023-04-24T22:13:39.412Z,20.36
2023-04-24T22:16:07.833Z,20.36
2023-04-24T22:18:46.618Z,20.37
2023-04-24T22:21:16.760Z,20.37
2023-04-24T22:23:44.782Z,20.35
2023-04-24T22:26:12.881Z,20.35
2023-04-24T22:28:40.975Z,20.38
2023-04-24T22:31:09.476Z,20.40
2023-04-24T22:33:37.463Z,20.39
2023-04-24T22:36:05.913Z,20.40
2023-04-24T22:38:35.269Z,20.39
2023-04-24T22:41:03.463Z,20.39
2023-04-24T22:43:31.809Z,20.38
2023-04-24T22:45:59.849Z,20.38
2023-04-24T22:48:28.096Z,20.38
2023-04-24T22:50:56.194Z,20.38
2023-04-24T22:53:24.199Z,20.37
2023-04-24T22:55:53.505Z,20.31
2023-04-24T22:58:21.506Z,20.37
2023-04-24T23:00:49.705Z,20.14
2023-04-24T23:03:17.949Z,20.37
2023-04-24T23:05:46.010Z,20.37
2023-04-24T23:08:13.960Z,20.34
2023-04-24T23:10:42.490Z,20.36
2023-04-24T23:13:11.898Z,20.37
2023-04-24T23:15:40.159Z,20.35
2023-04-24T23:18:08.181Z,20.31
2023-04-24T23:20:36.186Z,20.33
2023-04-24T23:23:04.189Z,20.30
2023-04-24T23:25:32.846Z,20.33
2023-04-24T23:28:00.827Z,20.31
2023-04-24T23:30:30.743Z,20.09
2023-04-24T23:32:58.821Z,20.30
2023-04-24T23:35:27.105Z,20.16
2023-04-24T23:37:56.193Z,20.27
2023-04-24T23:40:24.394Z,20.29
2023-04-24T23:43:05.716Z,20.28
2023-04-24T23:45:37.119Z,20.27
2023-04-24T23:48:05.937Z,20.27
2023-04-24T23:50:34.348Z,20.26
2023-04-24T23:53:02.677Z,20.24
2023-04-24T23:55:30.998Z,20.25
2023-04-24T23:57:59.106Z,20.23
